Dutch
Home     News     Corporate     Events & Tours     Flight ops     Crew centre      
My transavia virtual    Join us    Last logs    Who is flying    Software    Training    VRTS     
 

view flightdata
view flightplan
view OFP
view flightlog



flightdata:
pilot: Marcel Onderdelinden
flight: TRA625
from: LEZL (Sevilla San Pablo)
to: LFPO (Paris Paris Orly)
date: 29-05-2020
departure: 13:52z
arrival: 16:22z
duration: 2:30
aircraft: B738 (PHHSK)
distance: 836 NM
touchdown: -228 ft/m @ 151 KIAS



flightplan:
-(FPL-TRA625-IS
-B738/M-SDEEFGIRWXY/LB1
-LEZL1350
-N0447F380 HIJ UZ230 TLD UN858 CNA UT158 AMB
-LFPO0203 LFPG
-PBN/B1D1O1 DOF/200529 REG/PHHSK EET/LFFF0102 SEL/MQHJ CODE/485122 RVR/200 OPR/TRA PER/C)



operational flightplan (OFP):
DISPATCH BRIEFING (TEL:
--------- --------- --------- --------- --------- --------- ---------  
PREDEPARTURE ATC CLEARANCE:
.
.
--------- --------- --------- --------- --------- --------- ---------  
OFP  1    29 MAY 20/13:18
                                    OBS  3016

TRA625     C/S TRA5575  LEZL/SVQ   LFPO/ORY         CRZ SYS     CI 10
29 MAY 20  PH-HSK       1725/1725  1935/1940        GND DIST      804
B737-800 CFTAB:.....    CTOT:....  STA  1940        AIR DIST      804
                                                    AVG W/C         0
MAXIMUM    ZFW  62731  LAW  66360  TOW  75975       AVG ISA       M04
ESTIMATED  ZFW  57937  LAW  60497  TOW  65438       F-F FACTOR    0.0
ACTUAL     ZFW  .....  LAW  .....  TOW  .....
--------- --------- --------- --------- --------- --------- ---------
TRIP        4941   0200           .....  .....
CONT         247   0007           .....  .....
ALTN         719   0016  LFPG     .....  .....  ....
FINAL       1082   0030           .....  .....
ADDNL        512   0014           .....  .....
TANKERING                  
PLN TOF     6989   0253
DIFF        ....   ....
PLN TOF     ....   ....  (CORRECTED)   
EXTRA          0   ....                  
TOF         6989   ....                 
TAXI         120   ....                  
BLOCK       7621   ....        
--------- --------- --------- --------- --------- --------- ---------
REASON EXTRA FUEL      MATRIX FUEL:
O ECN-ECONAMICAL     O TMP-TEMPORARILY      O ATC-AIR TRAFFIC CNTRL
O FOB-FUEL ON.BOARD  O MSC-MISCELLANEOUS    O FPC-FLIGHT PLN CORR
O WXR-WEATHER        O TEC-TECHNICAL        ACT.CI/CRZ USED: . . .   

--------- --------- --------- --------- --------- --------- ---------

ZFW ZFW 1000 : PLN TOF   XXXXX/TRIP XXXXX 00 MIN HOLD DEST: 0 EXTRA
ZFW ZFW-1000 : PLN TOF   XXXXX/TRIP XXXXX
--------- --------- --------- --------- --------- --------- ---------
COMMANDERS NAME:                           SIGNATURE:

--------- --------- --------- --------- --------- --------- ---------
FROM:  LEZL ELEV111      TO: LFPO ELEV291        ALTN: LFPG ELEV 392
ATC C/S     : TRA55TRA625             AVG ISA : M04
CO-ROUTE    :                        AVG TT  :   
FMC-RES FUEL: 1801                   AVG W/C :    0
CRZ ALT     : FL360                  FL310
CI          : CI 10                  FL200     360/000
                                     FL100

LEZL/27  N0445F360 HIJ1P HIJ UM30 PARKA UN858 EDIGO/N0444F380 UN858
DGO UL176 CNA UT158 TUDRA/N0396F260 UT158 AMB AMB6E LFPO/25

--------- --------- --------- --------- --------- --------- ---------
.
.
--------- --------- --------- --------- --------- --------- ---------
RVSM ALT CHECK:  FL:...... LEFT: ...... STBY: ...... RIGHT: ......

--------- --------- --------- --------- --------- --------- ---------
DESTINATION ALTERNATE LFPG
--------- --------- --------- --------- --------- --------- ---------

--------- --------- --------- --------- --------- --------- ---------
--------- --------- --------- --------- --------- --------- ---------
ALTERNATE SUMMARY
--------- --------- --------- --------- --------- --------- ---------
      ALTN        DIST   LVL       WC TIME  FUEL VIA
      LFPG/27R      60  FL100    0 0016   719 TSU DCT PON
INFO/LFQQ/26      159  FL240    0 0032  1378 NURM7P NURMO UN874 CMB
                                           CMB5B
INFO/LFRS/21      207  FL290    0 0039  1651 LGL7P LGL UT176 ROLEN
                                           UZ15 ARDOD A5 VALAX
                                           VALA1A
INFO/EBBR/25L     213  FL300    0 0039  1690 NURM7P NURMO UN874 CMB
                                           UZ373 ARVOL ARVO7A
--------- --------- --------- --------- --------- --------- ---------

-(FPL-TRA625-IS
-B738/M-SDEEFGIRWXY/LB1
-LEZL1355
-N0447F380 HIJ UZ230 TLD UN858 CNA UT158 AMB
-LFPO0203 LFPG
-PBN/B1D1O1 DOF/200529 REG/PHHSK EET/LFFF0102 SEL/MQHJ CODE/485122 RVR/200 OPR/TRA PER/C)

WEATHER BRIEFING - GENERATED 29 MAY 2020 13:18 UTC
--------------------------------------------------------------------------------

LEZL LFPO LFPG LFQQ LFRS EBBR

--------------------------------------------------------------------------------
ORIGIN: LEZL (SEVILLA)
--------------------------------------------------------------------------------
LEZL 291300Z AUTO 07005KT 350V150 CAVOK 31/10 Q1012

LEZL 290800Z 2909/3009 05006KT CAVOK TX36/2915Z TN19/3005Z
      BECMG 2917/2919 22010KT
      BECMG 3000/3002 04004KT


--------------------------------------------------------------------------------
DESTINATION: LFPO (PARIS)
--------------------------------------------------------------------------------
LFPO 291300Z AUTO 07012KT 030V120 CAVOK 23/04 Q1023 NOSIG

LFPO 291100Z 2912/3018 08010KT CAVOK


--------------------------------------------------------------------------------
ALTERNATE: LFPG (PARIS)
--------------------------------------------------------------------------------
LFPG 291300Z AUTO 07012KT 050V110 CAVOK 23/03 Q1024 NOSIG

LFPG 291100Z 2912/3018 07012KT CAVOK TX26/3016Z TN11/3004Z=  LFPO 291100Z 2912/3018 08010KT CAVOK


--------------------------------------------------------------------------------
ALTERNATE: LFQQ (LILLE)
--------------------------------------------------------------------------------
LFQQ 291300Z AUTO 06010KT 010V100 CAVOK 22/03 Q1025 NOSIG

LFQQ 291100Z 2912/3018 05009KT CAVOK


--------------------------------------------------------------------------------
ALTERNATE: LFRS (NANTES)
--------------------------------------------------------------------------------
LFRS 291300Z AUTO 06013KT 040V110 CAVOK 26/05 Q1019 NOSIG

LFRS 291100Z 2912/3018 07014KT CAVOK


--------------------------------------------------------------------------------
ALTERNATE: EBBR (BRUSSELS)
--------------------------------------------------------------------------------
EBBR 291250Z 05006KT 350V140 CAVOK 22/02 Q1026 NOSIG

EBBR 291110Z 2912/3018 05008KT CAVOK =  EBCI 291110Z 2912/3018 06008KT CAVOK


NOTAM BRIEFING - GENERATED 29 MAY 2020 13:17 UTC
--------------------------------------------------------------------------------

LEZL LFPO LFPG LFPG LFQQ LFRS EBBR

--------------------------------------------------------------------------------
GLOBAL TRANSAVIA.COM VIRTUAL NOTAMS
--------------------------------------------------------------------------------
REF:NIL PLEASE CONTACT OPERATIONS IN CASE OF STRUCTURAL FLIGHTPLAN ERRORS ON FLIGHT-OPS@TRANSAVIA-VIRTUAL.COM
VALID:UFN

REF:NIL
PLEASE CHECK ACARS EVERY 10 MINUTES WHEN FLYING WITH SOUND OFF. AN NEW ACARS MESSAGE PRODUCE A SOUND SIGNAL UNTILL ITS READ. FLOWCONTROL DON'T RECEIVE MUCH REACTION ON OUTGOING ACARS MESSAGES ACCORDING FLIGHTSTATUS.
SOURCE: SPL/HV/OCC/
END VALID: UFN

REF:NIL
PLEASE CONTACT FLOWCONTROL IN CASE OF PROBLEMS WITH ROUTINGS
SOURCE: SPL/HV/OCC/
END VALID: UFN

REF:NIL
IN CASE OF ENGINE-OUT FLY V2 OR V2 20 MAX. UNTIL ABOVE MSA.
LEVEL-OFF AT AN ALTITUDE ROUNDED OFF TO THE FIRST 1000 FT OF THE HIGHEST MSA.
E.G: MSA EHAM; 1.7 AND 2.3 LEVEL-OFF 3000 FT. AFTER LANDING MAKE A REP TO OCC ON 131.975
SOURCE:SPL/HV/OCC
END VALID:UFN



flightlog:
Pilot : Marcel Onderdelinden
Flight: TRA625
From  : LEZL Sevilla
To    : LFPO Paris

[FLIGHTLOG] 1.5.4
29-05-2020 13:31:23z, logging started
29-05-2020 13:43:58z, pos report: 000 KIAS, 00 119 ft, heading 308, winds 086 @ 05 kts
29-05-2020 13:52:05z, parking brake released
29-05-2020 13:55:20z, flaps set to 13%
29-05-2020 13:58:59z, pos report: 012 KIAS, 00 119 ft, heading 270, winds 000 @ 02 kts
29-05-2020 14:02:12z, take-off at 154 KIAS
29-05-2020 14:02:12z, pos report: 154 KIAS, 00 122 ft, heading 090, winds 000 @ 02 kts
29-05-2020 14:02:12z, flying online @ IVAO (TRA625)
29-05-2020 14:02:12z, position: LEZL - Sevilla
29-05-2020 14:02:21z, retracted gear at 172 KIAS and 163 ft AGL
29-05-2020 14:03:37z, flaps set to 0%
29-05-2020 14:14:00z, pos report: 297 KIAS, 28 459 ft, heading 024, winds 307 @ 13 kts
29-05-2020 14:29:01z, pos report: 250 KIAS, 38 052 ft, heading 022, winds 319 @ 25 kts
29-05-2020 14:44:02z, pos report: 249 KIAS, 38 087 ft, heading 019, winds 324 @ 28 kts
29-05-2020 14:59:04z, pos report: 250 KIAS, 38 058 ft, heading 026, winds 332 @ 29 kts
29-05-2020 15:14:04z, pos report: 249 KIAS, 38 043 ft, heading 027, winds 343 @ 31 kts
29-05-2020 15:29:05z, pos report: 250 KIAS, 38 136 ft, heading 037, winds 002 @ 47 kts
29-05-2020 15:44:06z, pos report: 260 KIAS, 20 369 ft, heading 020, winds 037 @ 23 kts
29-05-2020 15:59:07z, pos report: 248 KIAS, 10 220 ft, heading 189, winds 062 @ 16 kts
29-05-2020 16:09:39z, flaps set to 13%
29-05-2020 16:09:47z, flaps set to 25%
29-05-2020 16:09:50z, flaps set to 38%
29-05-2020 16:11:32z, on glideslope
29-05-2020 16:12:01z, lowered gear at 180 KIAS and 2420 ft AGL
29-05-2020 16:12:14z, flaps set to 50%
29-05-2020 16:12:18z, flaps set to 62%
29-05-2020 16:12:42z, flaps set to 75%
29-05-2020 16:12:45z, flaps set to 87%
29-05-2020 16:14:08z, pos report: 147 KIAS, 01 192 ft, heading 064, winds 086 @ 13 kts
29-05-2020 16:15:22z, touchdown: -228ft/m at 151 KIAS
29-05-2020 16:15:22z, pos report: 151 KIAS, 00 300 ft, heading 062, winds 060 @ 12 kts
29-05-2020 16:15:22z, flying online @ IVAO (TRA625)
29-05-2020 16:15:22z, position: LFPO - Paris
29-05-2020 16:17:02z, flaps set to 75%
29-05-2020 16:17:06z, flaps set to 62%
29-05-2020 16:17:08z, flaps set to 50%
29-05-2020 16:17:11z, flaps set to 38%
29-05-2020 16:17:13z, retracted spoilers
29-05-2020 16:17:15z, flaps set to 25%
29-05-2020 16:17:19z, flaps set to 13%
29-05-2020 16:17:26z, flaps set to 0%
29-05-2020 16:22:08z, parking brake set
29-05-2020 16:26:39z, logging ended

©2009-2021, transavia virtual. All rights reserved. This website is only meant for simulation purposes.
This website is not owned by transavia, nor is transavia responsible for the content of this website.